createdAt,value
2018-09-23T00:00:45.362Z,1010.15
2018-09-23T00:01:45.344Z,1010.13
2018-09-23T00:02:45.326Z,1010.09
2018-09-23T00:03:45.308Z,1010.08
2018-09-23T00:04:45.302Z,1010.07
2018-09-23T00:05:45.273Z,1010.08
2018-09-23T00:06:45.260Z,1010.01
2018-09-23T00:07:45.241Z,1010.03
2018-09-23T00:08:45.220Z,1010.03
2018-09-23T00:09:45.210Z,1010.01
2018-09-23T00:10:45.188Z,1009.98
2018-09-23T00:11:45.172Z,1009.92
2018-09-23T00:12:45.157Z,1009.90
2018-09-23T00:13:45.139Z,1009.89
2018-09-23T00:14:45.128Z,1009.88
2018-09-23T00:15:45.102Z,1009.87
2018-09-23T00:16:45.093Z,1009.85
2018-09-23T00:17:45.075Z,1009.82
2018-09-23T00:18:45.052Z,1009.81
2018-09-23T00:19:45.044Z,1009.81
2018-09-23T00:20:45.018Z,1009.81
2018-09-23T00:21:45.002Z,1009.79
2018-09-23T00:22:44.984Z,1009.83
2018-09-23T00:23:44.969Z,1009.83
2018-09-23T00:24:44.953Z,1009.81
2018-09-23T00:25:44.933Z,1009.81
2018-09-23T00:26:44.918Z,1009.82
2018-09-23T00:27:44.902Z,1009.79
2018-09-23T00:28:44.884Z,1009.79
2018-09-23T00:29:44.864Z,1009.76
2018-09-23T00:30:44.850Z,1009.77
2018-09-23T00:31:44.831Z,1009.76
2018-09-23T00:32:44.819Z,1009.74
2018-09-23T00:33:44.800Z,1009.71
2018-09-23T00:34:44.783Z,1009.78
2018-09-23T00:35:44.765Z,1009.78
2018-09-23T00:36:44.756Z,1009.83
2018-09-23T00:37:44.733Z,1009.77
2018-09-23T00:38:44.713Z,1009.76
2018-09-23T00:39:44.694Z,1009.75
2018-09-23T00:40:44.681Z,1009.73
2018-09-23T00:41:44.676Z,1009.74
2018-09-23T00:42:44.650Z,1009.72
2018-09-23T00:43:44.637Z,1009.77
2018-09-23T00:44:44.618Z,1009.77
2018-09-23T00:45:44.597Z,1009.78
2018-09-23T00:46:44.584Z,1009.82
2018-09-23T00:47:44.558Z,1009.85
2018-09-23T00:48:44.542Z,1009.81
2018-09-23T00:49:44.522Z,1009.83
2018-09-23T00:50:44.514Z,1009.82
2018-09-23T00:51:44.499Z,1009.82
2018-09-23T00:52:44.474Z,1009.76
2018-09-23T00:53:44.460Z,1009.73
2018-09-23T00:54:44.440Z,1009.73
2018-09-23T00:55:44.421Z,1009.70
2018-09-23T00:56:44.405Z,1009.67
2018-09-23T00:57:44.392Z,1009.64
2018-09-23T00:58:44.368Z,1009.63
2018-09-23T00:59:44.357Z,1009.57
2018-09-23T01:00:44.335Z,1009.61
2018-09-23T01:01:44.319Z,1009.59
2018-09-23T01:02:44.304Z,1009.61
2018-09-23T01:03:44.285Z,1009.59
2018-09-23T01:04:44.267Z,1009.55
2018-09-23T01:05:44.253Z,1009.54
2018-09-23T01:06:44.234Z,1009.46
2018-09-23T01:07:44.219Z,1009.49
2018-09-23T01:08:44.198Z,1009.43
2018-09-23T01:09:44.184Z,1009.44
2018-09-23T01:10:44.167Z,1009.43
2018-09-23T01:11:44.148Z,1009.41
2018-09-23T01:12:44.140Z,1009.44
2018-09-23T01:13:44.118Z,1009.36
2018-09-23T01:14:44.106Z,1009.34
2018-09-23T01:15:44.080Z,1009.33
2018-09-23T01:16:44.063Z,1009.35
2018-09-23T01:17:44.045Z,1009.35
2018-09-23T01:18:44.029Z,1009.34
2018-09-23T01:19:44.021Z,1009.34
2018-09-23T01:20:43.997Z,1009.36
2018-09-23T01:21:43.977Z,1009.28
2018-09-23T01:22:43.960Z,1009.26
2018-09-23T01:23:43.946Z,1009.28
2018-09-23T01:24:43.929Z,1009.26
2018-09-23T01:25:43.916Z,1009.24
2018-09-23T01:26:43.893Z,1009.23
2018-09-23T01:27:43.876Z,1009.22
2018-09-23T01:28:43.866Z,1009.19
2018-09-23T01:29:43.841Z,1009.16
2018-09-23T01:30:43.825Z,1009.18
2018-09-23T01:31:43.810Z,1009.14
2018-09-23T01:32:43.789Z,1009.16
2018-09-23T01:33:43.771Z,1009.14
2018-09-23T01:34:43.754Z,1009.12
2018-09-23T01:35:43.739Z,1009.09
2018-09-23T01:36:43.722Z,1009.12
2018-09-23T01:37:43.704Z,1009.06
2018-09-23T01:38:43.690Z,1009.01
2018-09-23T01:39:43.677Z,1008.96
2018-09-23T01:40:43.653Z,1008.90
2018-09-23T01:41:43.645Z,1008.86
2018-09-23T01:42:43.619Z,1008.87
2018-09-23T01:43:43.601Z,1008.86
2018-09-23T01:44:43.584Z,1008.82
2018-09-23T01:45:43.568Z,1008.77
2018-09-23T01:46:43.552Z,1008.79
2018-09-23T01:47:43.536Z,1008.80
2018-09-23T01:48:43.520Z,1008.78
2018-09-23T01:49:43.501Z,1008.80
2018-09-23T01:50:43.492Z,1008.78
2018-09-23T01:51:43.465Z,1008.78
2018-09-23T01:52:43.448Z,1008.75
2018-09-23T01:53:43.432Z,1008.72
2018-09-23T01:54:43.417Z,1008.75
2018-09-23T01:55:43.406Z,1008.76
2018-09-23T01:56:43.380Z,1008.73
2018-09-23T01:57:43.376Z,1008.72
2018-09-23T01:58:43.345Z,1008.70
2018-09-23T01:59:43.328Z,1008.71
2018-09-23T02:00:43.309Z,1008.69
2018-09-23T02:01:43.294Z,1008.69
2018-09-23T02:02:43.275Z,1008.70
2018-09-23T02:03:43.262Z,1008.68
2018-09-23T02:04:43.240Z,1008.66
2018-09-23T02:05:43.224Z,1008.69
2018-09-23T02:06:43.208Z,1008.71
2018-09-23T02:07:43.197Z,1008.68
2018-09-23T02:08:43.174Z,1008.65
2018-09-23T02:09:43.156Z,1008.65
2018-09-23T02:10:43.140Z,1008.61
2018-09-23T02:11:43.122Z,1008.62
2018-09-23T02:12:43.123Z,1008.60
2018-09-23T02:13:43.085Z,1008.62
2018-09-23T02:14:43.069Z,1008.63
2018-09-23T02:15:43.051Z,1008.62
2018-09-23T02:16:43.037Z,1008.58
2018-09-23T02:17:43.019Z,1008.54
2018-09-23T02:18:43.002Z,1008.51
2018-09-23T02:19:42.985Z,1008.51
2018-09-23T02:20:42.965Z,1008.49
2018-09-23T02:21:42.955Z,1008.49
2018-09-23T02:22:42.936Z,1008.51
2018-09-23T02:23:42.917Z,1008.49
2018-09-23T02:24:42.897Z,1008.48
2018-09-23T02:25:42.893Z,1008.47
2018-09-23T02:26:42.866Z,1008.47
2018-09-23T02:27:42.847Z,1008.45
2018-09-23T02:28:42.837Z,1008.44
2018-09-23T02:29:42.812Z,1008.43
2018-09-23T02:30:42.798Z,1008.40
2018-09-23T02:31:42.776Z,1008.38
2018-09-23T02:32:42.762Z,1008.38
2018-09-23T02:33:42.742Z,1008.38
2018-09-23T02:34:42.728Z,1008.34
2018-09-23T02:35:42.709Z,1008.29
2018-09-23T02:36:42.690Z,1008.26
2018-09-23T02:37:42.675Z,1008.27
2018-09-23T02:38:42.662Z,1008.26
2018-09-23T02:39:42.641Z,1008.26
2018-09-23T02:40:42.625Z,1008.26
2018-09-23T02:41:42.608Z,1008.24
2018-09-23T02:42:42.589Z,1008.21
2018-09-23T02:43:42.570Z,1008.16
2018-09-23T02:44:42.552Z,1008.14
2018-09-23T02:45:42.537Z,1008.07
2018-09-23T02:46:42.520Z,1008.04
2018-09-23T02:47:42.503Z,1008.02
2018-09-23T02:48:42.484Z,1008.02
2018-09-23T02:49:42.470Z,1008.04
2018-09-23T02:50:42.452Z,1008.03
2018-09-23T02:51:42.434Z,1008.03
2018-09-23T02:52:42.427Z,1008.02
2018-09-23T02:53:42.399Z,1008.00
2018-09-23T02:54:42.385Z,1008.02
2018-09-23T02:55:42.364Z,1007.95
2018-09-23T02:56:42.347Z,1007.95
2018-09-23T02:57:42.330Z,1007.88
2018-09-23T02:58:42.314Z,1007.91
2018-09-23T02:59:42.296Z,1007.92
2018-09-23T03:00:42.278Z,1007.94
2018-09-23T03:01:42.262Z,1007.93
2018-09-23T03:02:42.252Z,1007.90
2018-09-23T03:03:42.226Z,1007.87
2018-09-23T03:04:42.210Z,1007.84
2018-09-23T03:05:42.191Z,1007.78
2018-09-23T03:06:42.177Z,1007.79
2018-09-23T03:07:42.159Z,1007.80
2018-09-23T03:08:42.138Z,1007.78
2018-09-23T03:09:42.121Z,1007.85
2018-09-23T03:10:42.107Z,1007.81
2018-09-23T03:11:42.093Z,1007.77
2018-09-23T03:12:42.070Z,1007.74
2018-09-23T03:13:42.057Z,1007.73
2018-09-23T03:14:42.038Z,1007.74
2018-09-23T03:15:42.023Z,1007.72
2018-09-23T03:16:42.000Z,1007.69
2018-09-23T03:17:41.983Z,1007.68
2018-09-23T03:18:41.967Z,1007.67
2018-09-23T03:19:41.949Z,1007.67
2018-09-23T03:20:41.934Z,1007.70
2018-09-23T03:21:41.917Z,1007.65
2018-09-23T03:22:41.897Z,1007.62
2018-09-23T03:23:41.879Z,1007.62
2018-09-23T03:24:41.861Z,1007.57
2018-09-23T03:25:41.859Z,1007.55
2018-09-23T03:26:41.824Z,1007.56
2018-09-23T03:27:41.810Z,1007.52
2018-09-23T03:28:41.802Z,1007.50
2018-09-23T03:29:41.774Z,1007.54
2018-09-23T03:30:41.756Z,1007.54
2018-09-23T03:31:41.741Z,1007.56
2018-09-23T03:32:41.728Z,1007.59
2018-09-23T03:33:41.707Z,1007.63
2018-09-23T03:34:41.687Z,1007.63
2018-09-23T03:35:41.674Z,1007.62
2018-09-23T03:36:41.652Z,1007.60
2018-09-23T03:37:41.637Z,1007.56
2018-09-23T03:38:41.619Z,1007.49
2018-09-23T03:39:41.601Z,1007.47
2018-09-23T03:40:41.582Z,1007.39
2018-09-23T03:41:41.566Z,1007.35
2018-09-23T03:42:41.547Z,1007.38
2018-09-23T03:43:41.533Z,1007.34
2018-09-23T03:44:41.513Z,1007.31
2018-09-23T03:45:41.497Z,1007.27
2018-09-23T03:46:41.485Z,1007.26
2018-09-23T03:47:41.463Z,1007.23
2018-09-23T03:48:41.454Z,1007.21
2018-09-23T03:49:41.430Z,1007.20
2018-09-23T03:50:41.411Z,1007.20
2018-09-23T03:51:41.395Z,1007.23
2018-09-23T03:52:41.377Z,1007.19
2018-09-23T03:53:41.361Z,1007.21
2018-09-23T03:54:41.349Z,1007.18
2018-09-23T03:55:41.328Z,1007.11
2018-09-23T03:56:41.316Z,1007.11
2018-09-23T03:57:41.295Z,1007.05
2018-09-23T03:58:41.278Z,1006.95
2018-09-23T03:59:41.259Z,1006.92
2018-09-23T04:00:41.249Z,1006.84
2018-09-23T04:01:41.225Z,1006.84
2018-09-23T04:02:41.209Z,1006.77
2018-09-23T04:03:41.190Z,1006.72
2018-09-23T04:04:41.174Z,1006.68
2018-09-23T04:05:41.157Z,1006.68
2018-09-23T04:06:41.139Z,1006.66
2018-09-23T04:07:41.126Z,1006.70
2018-09-23T04:08:41.107Z,1006.73
2018-09-23T04:09:41.088Z,1006.68
2018-09-23T04:10:41.070Z,1006.67
2018-09-23T04:11:41.054Z,1006.63
2018-09-23T04:12:41.036Z,1006.66
2018-09-23T04:13:41.019Z,1006.71
2018-09-23T04:14:41.002Z,1006.71
2018-09-23T04:15:40.984Z,1006.76
2018-09-23T04:16:41.010Z,1006.79
2018-09-23T04:17:40.951Z,1006.77
2018-09-23T04:18:40.937Z,1006.77
2018-09-23T04:19:40.917Z,1006.81
2018-09-23T04:20:40.899Z,1006.84
2018-09-23T04:21:40.888Z,1006.82
2018-09-23T04:22:40.866Z,1006.86
2018-09-23T04:23:40.847Z,1006.89
2018-09-23T04:24:40.832Z,1006.89
2018-09-23T04:25:40.814Z,1006.91
2018-09-23T04:26:40.801Z,1006.88
2018-09-23T04:27:40.780Z,1006.85
2018-09-23T04:28:40.769Z,1006.79
2018-09-23T04:29:40.766Z,1006.74
2018-09-23T04:30:40.729Z,1006.67
2018-09-23T04:31:40.710Z,1006.68
2018-09-23T04:32:40.694Z,1006.63
2018-09-23T04:33:40.688Z,1006.65
2018-09-23T04:34:40.663Z,1006.60
2018-09-23T04:35:40.644Z,1006.59
2018-09-23T04:36:40.626Z,1006.58
2018-09-23T04:37:40.610Z,1006.58
2018-09-23T04:38:40.593Z,1006.59
2018-09-23T04:39:40.574Z,1006.65
2018-09-23T04:40:40.558Z,1006.71
2018-09-23T04:41:40.540Z,1006.76
2018-09-23T04:42:40.524Z,1006.81
2018-09-23T04:43:40.511Z,1006.80
2018-09-23T04:44:40.493Z,1006.82
2018-09-23T04:45:40.475Z,1006.82
2018-09-23T04:46:40.457Z,1006.78
2018-09-23T04:47:40.439Z,1006.74
2018-09-23T04:48:40.423Z,1006.78
2018-09-23T04:49:40.415Z,1006.79
2018-09-23T04:50:40.392Z,1006.73
2018-09-23T04:51:40.374Z,1006.63
2018-09-23T04:52:40.359Z,1006.63
2018-09-23T04:53:40.338Z,1006.60
2018-09-23T04:54:40.324Z,1006.55
2018-09-23T04:55:40.308Z,1006.59
2018-09-23T04:56:40.285Z,1006.60
2018-09-23T04:57:40.269Z,1006.65
2018-09-23T04:58:40.253Z,1006.64
2018-09-23T04:59:40.239Z,1006.66
2018-09-23T05:00:40.229Z,1006.66
2018-09-23T05:01:40.202Z,1006.66
2018-09-23T05:02:40.188Z,1006.69
2018-09-23T05:03:40.172Z,1006.64
2018-09-23T05:04:40.152Z,1006.63
2018-09-23T05:05:40.136Z,1006.55
2018-09-23T05:06:40.129Z,1006.52
2018-09-23T05:07:40.103Z,1006.53
2018-09-23T05:08:40.085Z,1006.54
2018-09-23T05:09:40.066Z,1006.47
2018-09-23T05:10:40.052Z,1006.37
2018-09-23T05:11:40.039Z,1006.34
2018-09-23T05:12:40.017Z,1006.31
2018-09-23T05:13:40.000Z,1006.32
2018-09-23T05:14:39.983Z,1006.40
2018-09-23T05:15:39.966Z,1006.48
2018-09-23T05:16:39.948Z,1006.56
2018-09-23T05:17:39.933Z,1006.63
2018-09-23T05:18:39.915Z,1006.60
2018-09-23T05:19:39.903Z,1006.67
2018-09-23T05:20:39.880Z,1006.64
2018-09-23T05:21:39.871Z,1006.63
2018-09-23T05:22:39.847Z,1006.58
2018-09-23T05:23:39.836Z,1006.61
2018-09-23T05:24:39.826Z,1006.60
2018-09-23T05:25:39.809Z,1006.57
2018-09-23T05:26:39.780Z,1006.60
2018-09-23T05:27:39.764Z,1006.62
2018-09-23T05:28:39.745Z,1006.60
2018-09-23T05:29:39.728Z,1006.59
2018-09-23T05:30:39.711Z,1006.60
2018-09-23T05:31:39.694Z,1006.59
2018-09-23T05:32:39.684Z,1006.51
2018-09-23T05:33:39.662Z,1006.47
2018-09-23T05:34:39.643Z,1006.43
2018-09-23T05:35:39.625Z,1006.46
2018-09-23T05:36:39.610Z,1006.50
2018-09-23T05:37:39.593Z,1006.47
2018-09-23T05:38:39.580Z,1006.44
2018-09-23T05:39:39.565Z,1006.47
2018-09-23T05:40:39.546Z,1006.45
2018-09-23T05:41:39.526Z,1006.49
2018-09-23T05:42:39.512Z,1006.49
2018-09-23T05:43:39.492Z,1006.50
2018-09-23T05:44:39.479Z,1006.52
2018-09-23T05:45:39.458Z,1006.54
2018-09-23T05:46:39.441Z,1006.54
2018-09-23T05:47:39.425Z,1006.56
2018-09-23T05:48:39.407Z,1006.57
2018-09-23T05:49:39.395Z,1006.55
2018-09-23T05:50:39.374Z,1006.55
2018-09-23T05:51:39.359Z,1006.47
2018-09-23T05:52:39.338Z,1006.34
2018-09-23T05:53:39.322Z,1006.26
2018-09-23T05:54:39.306Z,1006.17
2018-09-23T05:55:39.288Z,1006.15
2018-09-23T05:56:39.277Z,1006.13
2018-09-23T05:57:39.253Z,1006.12
2018-09-23T05:58:39.246Z,1006.16
2018-09-23T05:59:39.225Z,1006.18
2018-09-23T06:00:39.205Z,1006.19
2018-09-23T06:01:39.188Z,1006.14
2018-09-23T06:02:39.171Z,1006.09
2018-09-23T06:03:39.153Z,1006.08
2018-09-23T06:04:39.138Z,1006.03
2018-09-23T06:05:39.120Z,1006.05
2018-09-23T06:06:39.107Z,1006.03
2018-09-23T06:07:39.091Z,1006.00
2018-09-23T06:08:39.108Z,1006.06
2018-09-23T06:09:39.054Z,1006.03
2018-09-23T06:10:39.037Z,1006.03
2018-09-23T06:11:39.022Z,1006.05
2018-09-23T06:12:39.003Z,1006.09
2018-09-23T06:13:38.992Z,1006.12
2018-09-23T06:14:38.974Z,1006.13
2018-09-23T06:15:38.953Z,1006.17
2018-09-23T06:16:38.940Z,1006.21
2018-09-23T06:17:38.918Z,1006.31
2018-09-23T06:18:38.905Z,1006.35
2018-09-23T06:19:38.885Z,1006.33
2018-09-23T06:20:38.872Z,1006.25
2018-09-23T06:21:38.851Z,1006.21
2018-09-23T06:22:38.839Z,1006.16
2018-09-23T06:23:38.823Z,1006.15
2018-09-23T06:24:38.803Z,1006.11
2018-09-23T06:25:38.786Z,1006.13
2018-09-23T06:26:38.769Z,1006.12
2018-09-23T06:27:38.756Z,1006.09
2018-09-23T06:28:38.736Z,1006.13
2018-09-23T06:29:38.719Z,1006.15
2018-09-23T06:30:38.700Z,1006.19
2018-09-23T06:31:38.685Z,1006.20
2018-09-23T06:32:38.670Z,1006.18
2018-09-23T06:33:38.656Z,1006.16
2018-09-23T06:34:38.637Z,1006.18
2018-09-23T06:35:38.618Z,1006.15
2018-09-23T06:36:38.608Z,1006.12
2018-09-23T06:37:38.589Z,1006.08
2018-09-23T06:38:38.568Z,1005.99
2018-09-23T06:39:38.558Z,1006.01
2018-09-23T06:40:38.539Z,1006.07
2018-09-23T06:41:38.518Z,1006.08
2018-09-23T06:42:38.502Z,1006.06
2018-09-23T06:43:38.495Z,1006.08
2018-09-23T06:44:38.470Z,1006.08
2018-09-23T06:45:38.516Z,1006.01
2018-09-23T06:46:38.444Z,1005.97
2018-09-23T06:47:38.456Z,1005.94
2018-09-23T06:48:38.402Z,1005.89
2018-09-23T06:49:38.388Z,1005.84
2018-09-23T06:50:38.368Z,1005.86
2018-09-23T06:51:38.357Z,1005.85
2018-09-23T06:52:38.335Z,1005.92
2018-09-23T06:53:38.325Z,1005.95
2018-09-23T06:54:38.309Z,1005.97
2018-09-23T06:55:38.289Z,1005.97
2018-09-23T06:56:38.267Z,1006.06
2018-09-23T06:57:38.253Z,1006.07
2018-09-23T06:58:38.236Z,1006.09
2018-09-23T06:59:38.228Z,1006.14
2018-09-23T07:00:38.204Z,1006.14
2018-09-23T07:01:38.186Z,1006.14
2018-09-23T07:02:38.168Z,1006.15
2018-09-23T07:03:38.167Z,1006.16
2018-09-23T07:04:38.215Z,1006.10
2018-09-23T07:05:38.125Z,1006.09
2018-09-23T07:06:38.103Z,1006.10
2018-09-23T07:07:38.086Z,1006.08
2018-09-23T07:08:38.078Z,1005.97
2018-09-23T07:09:38.055Z,1005.89
2018-09-23T07:10:38.039Z,1005.81
2018-09-23T07:11:38.025Z,1005.76
2018-09-23T07:12:38.003Z,1005.68
2018-09-23T07:13:37.985Z,1005.70
2018-09-23T07:14:37.970Z,1005.71
2018-09-23T07:15:37.953Z,1005.80
2018-09-23T07:16:37.944Z,1005.87
2018-09-23T07:17:37.921Z,1005.95
2018-09-23T07:18:37.902Z,1005.98
2018-09-23T07:19:37.894Z,1006.00
2018-09-23T07:20:37.870Z,1005.97
2018-09-23T07:21:37.860Z,1006.00
2018-09-23T07:22:37.841Z,1005.99
2018-09-23T07:23:37.889Z,1006.00
2018-09-23T07:24:37.806Z,1006.07
2018-09-23T07:25:37.790Z,1006.07
2018-09-23T07:26:37.771Z,1006.02
2018-09-23T07:27:37.758Z,1005.99
2018-09-23T07:28:37.738Z,1005.94
2018-09-23T07:29:37.724Z,1005.87
2018-09-23T07:30:37.712Z,1005.88
2018-09-23T07:31:37.733Z,1005.87
2018-09-23T07:32:37.677Z,1005.85
2018-09-23T07:33:37.660Z,1005.84
2018-09-23T07:34:37.648Z,1005.85
2018-09-23T07:35:37.634Z,1005.83
2018-09-23T07:36:37.667Z,1005.80
2018-09-23T07:37:37.598Z,1005.73
2018-09-23T07:38:37.574Z,1005.70
2018-09-23T07:39:37.658Z,1005.69
2018-09-23T07:40:37.542Z,1005.69
2018-09-23T07:41:37.531Z,1005.66
2018-09-23T07:42:37.509Z,1005.62
2018-09-23T07:43:37.497Z,1005.58
2018-09-23T07:44:37.482Z,1005.54
2018-09-23T07:45:37.464Z,1005.54
2018-09-23T07:46:37.446Z,1005.49
2018-09-23T07:47:37.430Z,1005.46
2018-09-23T07:48:37.411Z,1005.44
2018-09-23T07:49:37.392Z,1005.42
2018-09-23T07:50:37.383Z,1005.37
2018-09-23T07:51:37.369Z,1005.38
2018-09-23T07:52:37.347Z,1005.41
2018-09-23T07:53:37.333Z,1005.38
2018-09-23T07:54:37.311Z,1005.38
2018-09-23T07:55:37.296Z,1005.38
2018-09-23T07:56:37.354Z,1005.34
2018-09-23T07:57:37.260Z,1005.29
2018-09-23T07:58:37.250Z,1005.27
2018-09-23T07:59:37.229Z,1005.27
2018-09-23T08:00:37.213Z,1005.33
2018-09-23T08:01:37.195Z,1005.38
2018-09-23T08:02:37.182Z,1005.42
2018-09-23T08:03:37.262Z,1005.44
2018-09-23T08:04:37.148Z,1005.46
2018-09-23T08:05:37.136Z,1005.48
2018-09-23T08:06:37.116Z,1005.51
2018-09-23T08:07:37.100Z,1005.45
2018-09-23T08:08:37.083Z,1005.40
2018-09-23T08:09:37.072Z,1005.34
2018-09-23T08:10:37.050Z,1005.29
2018-09-23T08:11:37.037Z,1005.30
2018-09-23T08:12:37.169Z,1005.32
2018-09-23T08:13:37.125Z,1005.34
2018-09-23T08:14:37.439Z,1005.32
2018-09-23T08:15:36.969Z,1005.32
2018-09-23T08:16:36.965Z,1005.25
2018-09-23T08:17:36.937Z,1005.22
2018-09-23T08:18:36.928Z,1005.27
2018-09-23T08:19:37.045Z,1005.31
2018-09-23T08:20:36.967Z,1005.34
2018-09-23T08:21:36.880Z,1005.38
2018-09-23T08:22:36.856Z,1005.36
2018-09-23T08:23:36.842Z,1005.31
2018-09-23T08:24:36.827Z,1005.23
2018-09-23T08:25:36.896Z,1005.21
2018-09-23T08:26:36.827Z,1005.18
2018-09-23T08:27:36.784Z,1005.14
2018-09-23T08:28:36.758Z,1005.14
2018-09-23T08:29:36.747Z,1005.07
2018-09-23T08:30:36.729Z,1005.08
2018-09-23T08:31:36.711Z,1005.09
2018-09-23T08:32:36.693Z,1005.08
2018-09-23T08:33:36.683Z,1004.98
2018-09-23T08:34:36.674Z,1004.97
2018-09-23T08:35:36.651Z,1004.90
2018-09-23T08:36:36.632Z,1004.86
2018-09-23T08:37:36.614Z,1004.86
2018-09-23T08:38:36.601Z,1004.92
2018-09-23T08:39:36.589Z,1004.94
2018-09-23T08:40:36.567Z,1004.96
2018-09-23T08:41:36.555Z,1004.93
2018-09-23T08:42:36.537Z,1004.90
2018-09-23T08:43:36.529Z,1004.88
2018-09-23T08:44:36.501Z,1004.89
2018-09-23T08:45:36.488Z,1004.88
2018-09-23T08:46:36.471Z,1004.89
2018-09-23T08:47:36.462Z,1004.89
2018-09-23T08:48:36.439Z,1004.85
2018-09-23T08:49:36.433Z,1004.87
2018-09-23T08:50:36.420Z,1004.83
2018-09-23T08:51:36.405Z,1004.86
2018-09-23T08:52:36.377Z,1004.88
2018-09-23T08:53:36.356Z,1004.95
2018-09-23T08:54:36.348Z,1004.95
2018-09-23T08:55:36.324Z,1005.05
2018-09-23T08:56:36.342Z,1005.01
2018-09-23T08:57:36.325Z,1005.02
2018-09-23T08:58:36.277Z,1004.93
2018-09-23T08:59:36.261Z,1004.84
2018-09-23T09:00:36.248Z,1004.80
2018-09-23T09:01:36.230Z,1004.81
2018-09-23T09:02:36.212Z,1004.79
2018-09-23T09:03:36.238Z,1004.80
2018-09-23T09:04:36.180Z,1004.78
2018-09-23T09:05:36.165Z,1004.78
2018-09-23T09:06:36.154Z,1004.78
2018-09-23T09:07:36.136Z,1004.75
2018-09-23T09:08:36.116Z,1004.75
2018-09-23T09:09:36.099Z,1004.73
2018-09-23T09:10:36.082Z,1004.71
2018-09-23T09:11:36.091Z,1004.72
2018-09-23T09:12:36.052Z,1004.68
2018-09-23T09:13:36.036Z,1004.67
2018-09-23T09:14:36.025Z,1004.62
2018-09-23T09:15:36.004Z,1004.58
2018-09-23T09:16:35.984Z,1004.53
2018-09-23T09:17:35.972Z,1004.49
2018-09-23T09:18:36.116Z,1004.47
2018-09-23T09:19:35.940Z,1004.50
2018-09-23T09:20:35.927Z,1004.50
2018-09-23T09:21:35.909Z,1004.52
2018-09-23T09:22:35.895Z,1004.53
2018-09-23T09:23:35.877Z,1004.52
2018-09-23T09:24:35.861Z,1004.50
2018-09-23T09:25:35.849Z,1004.58
2018-09-23T09:26:35.838Z,1004.53
2018-09-23T09:27:35.825Z,1004.50
2018-09-23T09:28:35.803Z,1004.45
2018-09-23T09:29:35.781Z,1004.31
2018-09-23T09:30:35.765Z,1004.24
2018-09-23T09:31:35.746Z,1004.20
2018-09-23T09:32:35.750Z,1004.19
2018-09-23T09:33:35.731Z,1004.14
2018-09-23T09:34:35.701Z,1004.06
2018-09-23T09:35:35.683Z,1004.04
2018-09-23T09:36:35.672Z,1004.04
2018-09-23T09:37:35.655Z,1004.06
2018-09-23T09:38:35.738Z,1004.07
2018-09-23T09:39:35.618Z,1004.00
2018-09-23T09:40:35.604Z,1004.01
2018-09-23T09:41:35.593Z,1004.01
2018-09-23T09:42:35.576Z,1004.01
2018-09-23T09:43:35.557Z,1004.02
2018-09-23T09:44:35.537Z,1004.06
2018-09-23T09:45:35.522Z,1004.06
2018-09-23T09:46:35.510Z,1004.04
2018-09-23T09:47:35.501Z,1003.99
2018-09-23T09:48:35.474Z,1003.96
2018-09-23T09:49:35.474Z,1003.96
2018-09-23T09:50:35.454Z,1003.97
2018-09-23T09:51:35.437Z,1003.97
2018-09-23T09:52:35.412Z,1003.99
2018-09-23T09:53:35.411Z,1004.01
2018-09-23T09:54:35.389Z,1003.99
2018-09-23T09:55:35.365Z,1004.02
2018-09-23T09:56:35.350Z,1004.01
2018-09-23T09:57:35.337Z,1004.02
2018-09-23T09:58:35.319Z,1003.99
2018-09-23T09:59:35.307Z,1003.99
2018-09-23T10:00:35.290Z,1003.92
2018-09-23T10:01:35.267Z,1003.90
2018-09-23T10:02:35.260Z,1003.84
2018-09-23T10:03:35.306Z,1003.81
2018-09-23T10:04:35.227Z,1003.83
2018-09-23T10:05:35.206Z,1003.84
2018-09-23T10:06:35.192Z,1003.85
2018-09-23T10:07:35.173Z,1003.77
2018-09-23T10:08:35.157Z,1003.78
2018-09-23T10:09:35.143Z,1003.79
2018-09-23T10:10:35.127Z,1003.80
2018-09-23T10:11:35.177Z,1003.80
2018-09-23T10:12:35.092Z,1003.83
2018-09-23T10:13:35.082Z,1003.84
2018-09-23T10:14:35.071Z,1003.88
2018-09-23T10:15:35.045Z,1003.94
2018-09-23T10:16:35.044Z,1003.94
2018-09-23T10:17:35.020Z,1003.90
2018-09-23T10:18:35.003Z,1003.91
2018-09-23T10:19:34.984Z,1003.80
2018-09-23T10:20:34.969Z,1003.73
2018-09-23T10:21:34.950Z,1003.61
2018-09-23T10:22:34.958Z,1003.48
2018-09-23T10:23:35.114Z,1003.43
2018-09-23T10:24:34.896Z,1003.40
2018-09-23T10:25:34.890Z,1003.42
2018-09-23T10:26:34.876Z,1003.46
2018-09-23T10:27:34.852Z,1003.45
2018-09-23T10:28:34.839Z,1003.50
2018-09-23T10:29:34.819Z,1003.53
2018-09-23T10:30:34.807Z,1003.51
2018-09-23T10:31:34.795Z,1003.55
2018-09-23T10:32:34.767Z,1003.54
2018-09-23T10:33:34.750Z,1003.58
2018-09-23T10:34:34.749Z,1003.63
2018-09-23T10:35:34.731Z,1003.68
2018-09-23T10:36:34.707Z,1003.73
2018-09-23T10:37:34.687Z,1003.72
2018-09-23T10:38:34.677Z,1003.76
2018-09-23T10:39:34.667Z,1003.77
2018-09-23T10:40:34.639Z,1003.83
2018-09-23T10:41:34.630Z,1003.88
2018-09-23T10:42:34.606Z,1003.93
2018-09-23T10:43:34.591Z,1003.96
2018-09-23T10:44:34.579Z,1004.02
2018-09-23T10:45:34.560Z,1004.07
2018-09-23T10:46:34.545Z,1004.15
2018-09-23T10:47:34.527Z,1004.11
2018-09-23T10:48:34.509Z,1004.15
2018-09-23T10:49:34.494Z,1004.10
2018-09-23T10:50:34.475Z,1004.11
2018-09-23T10:51:34.472Z,1004.04
2018-09-23T10:52:34.446Z,1004.02
2018-09-23T10:53:34.427Z,1004.00
2018-09-23T10:54:34.422Z,1003.93
2018-09-23T10:55:34.421Z,1003.81
2018-09-23T10:56:34.379Z,1003.70
2018-09-23T10:57:34.377Z,1003.63
2018-09-23T10:58:34.347Z,1003.57
2018-09-23T10:59:34.405Z,1003.60
2018-09-23T11:00:34.314Z,1003.66
2018-09-23T11:01:34.292Z,1003.63
2018-09-23T11:02:34.278Z,1003.63
2018-09-23T11:03:34.283Z,1003.53
2018-09-23T11:04:34.245Z,1003.49
2018-09-23T11:05:34.235Z,1003.48
2018-09-23T11:06:34.217Z,1003.44
2018-09-23T11:07:34.230Z,1003.44
2018-09-23T11:08:34.192Z,1003.45
2018-09-23T11:09:34.169Z,1003.36
2018-09-23T11:10:34.154Z,1003.31
2018-09-23T11:11:34.130Z,1003.23
2018-09-23T11:12:34.112Z,1003.19
2018-09-23T11:13:34.102Z,1003.21
2018-09-23T11:14:34.079Z,1003.17
2018-09-23T11:15:34.062Z,1003.14
2018-09-23T11:16:34.044Z,1003.18
2018-09-23T11:17:34.032Z,1003.13
2018-09-23T11:18:34.013Z,1003.23
2018-09-23T11:19:34.006Z,1003.27
2018-09-23T11:20:33.985Z,1003.34
2018-09-23T11:21:33.961Z,1003.42
2018-09-23T11:22:33.972Z,1003.48
2018-09-23T11:23:33.959Z,1003.54
2018-09-23T11:24:33.920Z,1003.54
2018-09-23T11:25:33.901Z,1003.54
2018-09-23T11:26:33.893Z,1003.50
2018-09-23T11:27:33.883Z,1003.45
2018-09-23T11:28:33.854Z,1003.48
2018-09-23T11:29:33.829Z,1003.45
2018-09-23T11:30:33.840Z,1003.46
2018-09-23T11:31:33.804Z,1003.39
2018-09-23T11:32:33.781Z,1003.38
2018-09-23T11:33:33.764Z,1003.34
2018-09-23T11:34:33.752Z,1003.36
2018-09-23T11:35:33.734Z,1003.36
2018-09-23T11:36:33.719Z,1003.35
2018-09-23T11:37:33.706Z,1003.27
2018-09-23T11:38:33.678Z,1003.21
2018-09-23T11:39:33.661Z,1003.17
2018-09-23T11:40:33.649Z,1003.13
2018-09-23T11:41:33.631Z,1003.06
2018-09-23T11:42:33.622Z,1002.99
2018-09-23T11:43:33.600Z,1002.95
2018-09-23T11:44:33.579Z,1002.87
2018-09-23T11:45:33.567Z,1002.81
2018-09-23T11:46:33.546Z,1002.79
2018-09-23T11:47:33.538Z,1002.79
2018-09-23T11:48:33.522Z,1002.81
2018-09-23T11:49:33.500Z,1002.78
2018-09-23T11:50:33.483Z,1002.74
2018-09-23T11:51:33.465Z,1002.70
2018-09-23T11:52:33.447Z,1002.71
2018-09-23T11:53:33.436Z,1002.75
2018-09-23T11:54:33.415Z,1002.69
2018-09-23T11:55:33.440Z,1002.68
2018-09-23T11:56:33.381Z,1002.69
2018-09-23T11:57:33.368Z,1002.64
2018-09-23T11:58:33.351Z,1002.57
2018-09-23T11:59:33.351Z,1002.53
2018-09-23T12:00:33.327Z,1002.54
2018-09-23T12:01:33.297Z,1002.59
2018-09-23T12:02:33.283Z,1002.57
2018-09-23T12:03:33.266Z,1002.63
2018-09-23T12:04:33.319Z,1002.68
2018-09-23T12:05:33.234Z,1002.67